• Join FlightAware (Why Join?)
  • Login
  • US Flag 
03:22PM EDT


 

Airport Tracker/Info


-or-


 

Live Flight TrackerFlight Track Log ✈ CTL14 ✈ 26-Apr-2013 ✈ KOSU - KBAK

Flight Track Log - Related Links

Times and Time Zones

All times are in EDT time to prevent confusion due to time zone crossing. See the CTL14 flight status page for this flight to view local times or setup timezone preferences in your user account.

Time Position Orientation Groundspeed Altitude Reporting Facility
EDT Latitude Longitude Course Direction KTS MPH feet Rate Location/Type
02:28AM 39.9125 -83.2612 265° West  Level Estimated
02:29AM 39.9002 -83.3139 266° West  Level Estimated
02:30AM 39.9056 -83.3685 277° West  Level FlightAware Approximate
02:31AM 39.9109 -83.4231 277° West  Level FlightAware Approximate
02:32AM 39.9162 -83.4778 277° West  Level FlightAware Approximate
02:33AM 39.9214 -83.5324 277° West  Level FlightAware Approximate
02:34AM 39.9267 -83.5871 277° West  Level FlightAware Approximate
02:35AM 39.9319 -83.6417 277° West  Level FlightAware Approximate
02:36AM 39.9371 -83.6964 277° West  Level FlightAware Approximate
02:37AM 39.9422 -83.7510 277° West  Level FlightAware Approximate
02:38AM 39.9474 -83.8057 277° West  Level FlightAware Approximate
02:39AM 39.9525 -83.8604 277° West  Level FlightAware Approximate
02:40AM 39.9576 -83.9151 277° West  Level FlightAware Approximate
02:41AM 39.9626 -83.9698 277° West  Level FlightAware Approximate
02:42AM 39.9677 -84.0245 277° West  Level FlightAware Approximate
02:43AM 39.9727 -84.0792 277° West  Level FlightAware Approximate
02:44AM 39.9776 -84.1339 277° West  Level FlightAware Approximate
02:45AM 39.9583 -84.1829 252° West  Level Estimated
02:46AM 39.9494 -84.2368 258° West  Level FlightAware Approximate
02:47AM 39.9405 -84.2907 258° West  Level FlightAware Approximate
02:48AM 39.9316 -84.3445 258° West  Level FlightAware Approximate
02:49AM 39.9227 -84.3983 258° West  Level FlightAware Approximate
02:50AM 39.9137 -84.4521 258° West  Level FlightAware Approximate
02:51AM 39.9047 -84.5059 258° West  Level FlightAware Approximate
02:52AM 39.8957 -84.5597 258° West  Level FlightAware Approximate
02:53AM 39.8867 -84.6135 258° West  Level FlightAware Approximate
02:54AM 39.8776 -84.6672 258° West  Level FlightAware Approximate
02:55AM 39.8685 -84.7210 258° West  Level FlightAware Approximate
02:56AM 39.8594 -84.7747 258° West  Level FlightAware Approximate
02:57AM 39.8502 -84.8284 258° West  Level FlightAware Approximate
02:58AM 39.8411 -84.8821 257° West  Level FlightAware Approximate
02:59AM 39.8319 -84.9358 257° West  Level FlightAware Approximate
03:00AM 39.8227 -84.9894 257° West  Level FlightAware Approximate
03:01AM 39.7964 -85.0325 250° West  Level Estimated
03:02AM 39.7845 -85.0853 254° West  Level FlightAware Approximate
03:03AM 39.7726 -85.1380 254° West  Level FlightAware Approximate
03:04AM 39.7607 -85.1907 254° West  Level FlightAware Approximate
03:05AM 39.7487 -85.2433 254° West  Level FlightAware Approximate
03:06AM 39.7367 -85.2960 254° West  Level FlightAware Approximate
03:07AM 39.7247 -85.3487 253° West  Level FlightAware Approximate
03:08AM 39.7126 -85.4013 253° West  Level FlightAware Approximate
03:09AM 39.7006 -85.4539 253° West  Level FlightAware Approximate
03:10AM 39.6885 -85.5065 253° West  Level FlightAware Approximate
03:11AM 39.6764 -85.5591 253° West  Level FlightAware Approximate
03:12AM 39.6643 -85.6116 253° West  Level FlightAware Approximate
03:13AM 39.6272 -85.6380 180° South  Level Estimated
03:14AM 39.5902 -85.6643 191° South  Level Estimated
03:15AM 39.5531 -85.6906 190° South  Level Estimated
03:16AM 39.5168 -85.7184 211° Southwest  Level FlightAware Approximate
03:17AM 39.4804 -85.7462 210° Southwest  Level FlightAware Approximate
03:18AM 39.4440 -85.7739 210° Southwest  Level FlightAware Approximate
03:19AM 39.4076 -85.8017 210° Southwest  Level FlightAware Approximate
03:20AM 39.3711 -85.8293 210° Southwest  Level FlightAware Approximate
03:21AM 39.3330 -85.8528 180° South  Level Estimated
03:22AM 39.2948 -85.8762 180° South  Level Estimated
03:23AM 39.2619 -85.8963 180° South  Level Estimated
03:24AM 39.2619 -85.8963 180° South  Level Estimated
03:25AM 39.2619 -85.8963 180° South  Level Estimated
03:26AM 39.2619 -85.8963 180° South  Level Estimated
03:27AM 39.2619 -85.8963 180° South  Level Estimated
03:28AM 39.2619 -85.8963 180° South  Level Estimated
03:29AM 39.2619 -85.8963 180° South  Level Estimated
03:30AM 39.2619 -85.8963 180° South  Level Estimated
03:31AM 39.2619 -85.8963 180° South  Level Estimated
03:32AM 39.2619 -85.8963 180° South  Level Estimated
03:33AM 39.2619 -85.8963 180° South  Level Estimated
03:34AM 39.2619 -85.8963 180° South  Level Estimated
03:35AM 39.2619 -85.8963 180° South  Level Estimated
03:36AM 39.2619 -85.8963 180° South  Level Estimated
03:37AM 39.2619 -85.8963 180° South  Level Estimated